Cowie, United Kingdom
Current Conditions -  °F | °C
As of 7:50 PM on Sunday 21 Dec 2014 (Local Time) from EGPH Reporting Station
Moderate Rain Moderate Rain  
Wind Chill: 52°   Ceiling: 2300
Heat Index: 52°   Visibility: 4mi
Dew Point: 50°   Wind: 23mph
Humidity: 94%   Direction: 240°WSW
Pressure: 29.65"   Gusts: NA
Location:  56.07°N, 3.87°W
Report Text: EGPH 211950Z 24020KT 6000 RA FEW013 SCT017 BKN023 11/10 Q1004
Loading
Personal Weather Stations






























Interactive Weather Map New forecast layout! Learn more

10-Day Weather Forecast

Advertisements
Track Severe Weather on mobile